sensor_id;sensor_type;location;lat;lon;timestamp;P1;durP1;ratioP1;P2;durP2;ratioP2
34832;SDS011;55941;50.800;4.342;2023-02-01T00:02:01;77.50;;;23.77;;
34832;SDS011;55941;50.800;4.342;2023-02-01T00:04:27;90.20;;;25.52;;
34832;SDS011;55941;50.800;4.342;2023-02-01T00:06:53;55.33;;;23.55;;
34832;SDS011;55941;50.800;4.342;2023-02-01T00:09:19;58.97;;;24.40;;
34832;SDS011;55941;50.800;4.342;2023-02-01T00:11:46;72.00;;;24.58;;
34832;SDS011;55941;50.800;4.342;2023-02-01T00:14:12;57.10;;;24.17;;
34832;SDS011;55941;50.800;4.342;2023-02-01T00:16:39;75.15;;;25.17;;
34832;SDS011;55941;50.800;4.342;2023-02-01T00:19:11;64.13;;;25.38;;
34832;SDS011;55941;50.800;4.342;2023-02-01T00:21:40;56.03;;;24.63;;
34832;SDS011;55941;50.800;4.342;2023-02-01T00:24:07;94.88;;;26.38;;
34832;SDS011;55941;50.800;4.342;2023-02-01T00:26:39;80.82;;;25.50;;
34832;SDS011;55941;50.800;4.342;2023-02-01T00:29:07;72.35;;;25.40;;
34832;SDS011;55941;50.800;4.342;2023-02-01T00:31:40;69.88;;;22.42;;
34832;SDS011;55941;50.800;4.342;2023-02-01T00:34:06;63.08;;;21.08;;
34832;SDS011;55941;50.800;4.342;2023-02-01T00:36:33;62.80;;;20.55;;
34832;SDS011;55941;50.800;4.342;2023-02-01T00:38:59;72.03;;;21.40;;
34832;SDS011;55941;50.800;4.342;2023-02-01T00:41:25;61.63;;;19.42;;
34832;SDS011;55941;50.800;4.342;2023-02-01T00:43:53;67.22;;;17.95;;
34832;SDS011;55941;50.800;4.342;2023-02-01T00:46:19;50.55;;;16.08;;
34832;SDS011;55941;50.800;4.342;2023-02-01T00:48:46;50.92;;;16.52;;
34832;SDS011;55941;50.800;4.342;2023-02-01T00:51:14;68.95;;;17.67;;
34832;SDS011;55941;50.800;4.342;2023-02-01T00:53:42;51.10;;;15.73;;
34832;SDS011;55941;50.800;4.342;2023-02-01T00:56:08;54.33;;;13.75;;
34832;SDS011;55941;50.800;4.342;2023-02-01T00:58:35;54.40;;;12.85;;
34832;SDS011;55941;50.800;4.342;2023-02-01T01:01:02;48.00;;;13.23;;
34832;SDS011;55941;50.800;4.342;2023-02-01T01:03:30;48.38;;;12.73;;
34832;SDS011;55941;50.800;4.342;2023-02-01T01:06:00;51.15;;;10.88;;
34832;SDS011;55941;50.800;4.342;2023-02-01T01:08:27;52.55;;;11.30;;
34832;SDS011;55941;50.800;4.342;2023-02-01T01:10:53;43.75;;;10.38;;
34832;SDS011;55941;50.800;4.342;2023-02-01T01:13:19;41.28;;;9.98;;
34832;SDS011;55941;50.800;4.342;2023-02-01T01:15:45;44.10;;;9.60;;
34832;SDS011;55941;50.800;4.342;2023-02-01T01:18:11;44.17;;;9.23;;
34832;SDS011;55941;50.800;4.342;2023-02-01T01:20:39;35.33;;;8.20;;
34832;SDS011;55941;50.800;4.342;2023-02-01T01:23:06;36.80;;;7.50;;
34832;SDS011;55941;50.800;4.342;2023-02-01T01:25:36;39.30;;;8.15;;
34832;SDS011;55941;50.800;4.342;2023-02-01T01:28:05;41.17;;;7.35;;
34832;SDS011;55941;50.800;4.342;2023-02-01T01:30:33;53.28;;;7.75;;
34832;SDS011;55941;50.800;4.342;2023-02-01T01:32:59;40.88;;;7.88;;
34832;SDS011;55941;50.800;4.342;2023-02-01T01:35:26;41.97;;;7.03;;
34832;SDS011;55941;50.800;4.342;2023-02-01T01:37:55;37.90;;;6.93;;
34832;SDS011;55941;50.800;4.342;2023-02-01T01:40:21;40.42;;;7.07;;
34832;SDS011;55941;50.800;4.342;2023-02-01T01:42:48;37.80;;;7.00;;
34832;SDS011;55941;50.800;4.342;2023-02-01T01:45:31;37.58;;;6.90;;
34832;SDS011;55941;50.800;4.342;2023-02-01T01:48:00;46.75;;;7.03;;
34832;SDS011;55941;50.800;4.342;2023-02-01T01:51:04;38.53;;;5.68;;
34832;SDS011;55941;50.800;4.342;2023-02-01T01:53:25;37.70;;;6.00;;
34832;SDS011;55941;50.800;4.342;2023-02-01T01:55:57;36.03;;;5.60;;
34832;SDS011;55941;50.800;4.342;2023-02-01T01:58:25;34.75;;;5.85;;
34832;SDS011;55941;50.800;4.342;2023-02-01T02:03:35;37.88;;;6.25;;
34832;SDS011;55941;50.800;4.342;2023-02-01T02:06:08;34.60;;;5.60;;
34832;SDS011;55941;50.800;4.342;2023-02-01T02:11:12;38.13;;;6.07;;
34832;SDS011;55941;50.800;4.342;2023-02-01T02:13:42;35.08;;;6.25;;
34832;SDS011;55941;50.800;4.342;2023-02-01T02:18:44;24.08;;;4.97;;
34832;SDS011;55941;50.800;4.342;2023-02-01T02:21:33;33.05;;;5.47;;
34832;SDS011;55941;50.800;4.342;2023-02-01T02:30:19;38.60;;;6.22;;
34832;SDS011;55941;50.800;4.342;2023-02-01T02:46:37;38.00;;;6.07;;
34832;SDS011;55941;50.800;4.342;2023-02-01T02:49:26;33.77;;;6.03;;
34832;SDS011;55941;50.800;4.342;2023-02-01T02:52:13;35.55;;;6.35;;
34832;SDS011;55941;50.800;4.342;2023-02-01T02:55:02;39.13;;;5.93;;
34832;SDS011;55941;50.800;4.342;2023-02-01T02:57:32;35.55;;;5.38;;
34832;SDS011;55941;50.800;4.342;2023-02-01T03:00:24;50.08;;;6.82;;
34832;SDS011;55941;50.800;4.342;2023-02-01T03:03:13;28.73;;;5.55;;
34832;SDS011;55941;50.800;4.342;2023-02-01T03:05:57;37.03;;;5.55;;
34832;SDS011;55941;50.800;4.342;2023-02-01T03:08:27;37.67;;;5.28;;
34832;SDS011;55941;50.800;4.342;2023-02-01T03:11:10;28.75;;;5.72;;
34832;SDS011;55941;50.800;4.342;2023-02-01T03:19:00;32.88;;;5.82;;
34832;SDS011;55941;50.800;4.342;2023-02-01T03:24:34;26.77;;;4.85;;
34832;SDS011;55941;50.800;4.342;2023-02-01T03:27:19;34.40;;;5.55;;
34832;SDS011;55941;50.800;4.342;2023-02-01T03:29:48;33.28;;;5.28;;
34832;SDS011;55941;50.800;4.342;2023-02-01T03:32:27;32.03;;;5.10;;
34832;SDS011;55941;50.800;4.342;2023-02-01T03:34:53;40.40;;;6.35;;
34832;SDS011;55941;50.800;4.342;2023-02-01T03:37:24;43.05;;;5.68;;
34832;SDS011;55941;50.800;4.342;2023-02-01T03:40:06;39.35;;;6.70;;
34832;SDS011;55941;50.800;4.342;2023-02-01T03:42:47;33.95;;;5.85;;
34832;SDS011;55941;50.800;4.342;2023-02-01T03:45:18;40.53;;;5.75;;
34832;SDS011;55941;50.800;4.342;2023-02-01T03:47:47;33.92;;;5.55;;
34832;SDS011;55941;50.800;4.342;2023-02-01T03:50:17;43.30;;;5.78;;
34832;SDS011;55941;50.800;4.342;2023-02-01T03:52:57;35.20;;;6.57;;
34832;SDS011;55941;50.800;4.342;2023-02-01T03:55:31;29.75;;;5.65;;
34832;SDS011;55941;50.800;4.342;2023-02-01T03:58:09;43.03;;;6.35;;
34832;SDS011;55941;50.800;4.342;2023-02-01T04:00:58;37.13;;;5.82;;
34832;SDS011;55941;50.800;4.342;2023-02-01T04:03:26;30.23;;;5.30;;
34832;SDS011;55941;50.800;4.342;2023-02-01T04:05:52;47.45;;;6.20;;
34832;SDS011;55941;50.800;4.342;2023-02-01T04:08:21;31.08;;;5.88;;
34832;SDS011;55941;50.800;4.342;2023-02-01T04:10:48;37.83;;;5.22;;
34832;SDS011;55941;50.800;4.342;2023-02-01T04:13:14;31.95;;;4.95;;
34832;SDS011;55941;50.800;4.342;2023-02-01T04:15:39;39.47;;;6.20;;
34832;SDS011;55941;50.800;4.342;2023-02-01T04:18:07;31.25;;;5.47;;
34832;SDS011;55941;50.800;4.342;2023-02-01T04:20:33;33.15;;;5.65;;
34832;SDS011;55941;50.800;4.342;2023-02-01T04:22:59;38.05;;;5.60;;
34832;SDS011;55941;50.800;4.342;2023-02-01T04:25:27;46.92;;;6.82;;
34832;SDS011;55941;50.800;4.342;2023-02-01T04:27:53;41.25;;;5.60;;
34832;SDS011;55941;50.800;4.342;2023-02-01T04:30:20;47.00;;;6.13;;
34832;SDS011;55941;50.800;4.342;2023-02-01T04:32:46;40.30;;;6.10;;
34832;SDS011;55941;50.800;4.342;2023-02-01T04:35:13;33.42;;;5.28;;
34832;SDS011;55941;50.800;4.342;2023-02-01T04:37:39;55.10;;;6.32;;
34832;SDS011;55941;50.800;4.342;2023-02-01T04:40:06;39.20;;;6.53;;
34832;SDS011;55941;50.800;4.342;2023-02-01T04:42:32;34.22;;;4.95;;
34832;SDS011;55941;50.800;4.342;2023-02-01T04:44:58;38.50;;;5.72;;
34832;SDS011;55941;50.800;4.342;2023-02-01T04:47:24;41.35;;;5.07;;
34832;SDS011;55941;50.800;4.342;2023-02-01T04:49:50;31.70;;;5.43;;
34832;SDS011;55941;50.800;4.342;2023-02-01T04:52:16;43.72;;;6.53;;
34832;SDS011;55941;50.800;4.342;2023-02-01T04:54:42;40.80;;;5.53;;
34832;SDS011;55941;50.800;4.342;2023-02-01T04:57:08;40.92;;;5.60;;
34832;SDS011;55941;50.800;4.342;2023-02-01T04:59:34;33.25;;;5.00;;
34832;SDS011;55941;50.800;4.342;2023-02-01T05:02:00;40.92;;;5.22;;
34832;SDS011;55941;50.800;4.342;2023-02-01T05:04:26;37.90;;;6.20;;
34832;SDS011;55941;50.800;4.342;2023-02-01T05:06:52;40.72;;;4.78;;
34832;SDS011;55941;50.800;4.342;2023-02-01T05:09:18;28.83;;;5.07;;
34832;SDS011;55941;50.800;4.342;2023-02-01T05:11:44;44.38;;;5.15;;
34832;SDS011;55941;50.800;4.342;2023-02-01T05:14:28;43.42;;;5.65;;
34832;SDS011;55941;50.800;4.342;2023-02-01T05:16:54;41.17;;;5.50;;
34832;SDS011;55941;50.800;4.342;2023-02-01T05:19:20;37.47;;;4.68;;
34832;SDS011;55941;50.800;4.342;2023-02-01T05:21:48;53.95;;;6.10;;
34832;SDS011;55941;50.800;4.342;2023-02-01T05:24:14;37.17;;;5.40;;
34832;SDS011;55941;50.800;4.342;2023-02-01T05:26:45;35.75;;;5.15;;
34832;SDS011;55941;50.800;4.342;2023-02-01T05:29:12;28.17;;;4.30;;
34832;SDS011;55941;50.800;4.342;2023-02-01T05:31:38;36.60;;;4.95;;
34832;SDS011;55941;50.800;4.342;2023-02-01T05:34:05;42.20;;;6.05;;
34832;SDS011;55941;50.800;4.342;2023-02-01T05:36:31;41.05;;;5.78;;
34832;SDS011;55941;50.800;4.342;2023-02-01T05:38:59;39.50;;;5.63;;
34832;SDS011;55941;50.800;4.342;2023-02-01T05:41:25;41.70;;;5.00;;
34832;SDS011;55941;50.800;4.342;2023-02-01T05:43:52;43.35;;;5.63;;
34832;SDS011;55941;50.800;4.342;2023-02-01T05:46:18;39.72;;;5.22;;
34832;SDS011;55941;50.800;4.342;2023-02-01T05:48:44;36.03;;;5.22;;
34832;SDS011;55941;50.800;4.342;2023-02-01T05:51:10;36.40;;;5.78;;
34832;SDS011;55941;50.800;4.342;2023-02-01T05:53:36;34.70;;;5.65;;
34832;SDS011;55941;50.800;4.342;2023-02-01T05:56:04;47.72;;;5.93;;
34832;SDS011;55941;50.800;4.342;2023-02-01T05:58:30;29.88;;;5.72;;
34832;SDS011;55941;50.800;4.342;2023-02-01T06:00:58;49.45;;;5.45;;
34832;SDS011;55941;50.800;4.342;2023-02-01T06:03:25;46.10;;;6.28;;
34832;SDS011;55941;50.800;4.342;2023-02-01T06:05:52;30.83;;;5.38;;
34832;SDS011;55941;50.800;4.342;2023-02-01T06:08:18;41.70;;;5.65;;
34832;SDS011;55941;50.800;4.342;2023-02-01T06:10:44;32.03;;;6.03;;
34832;SDS011;55941;50.800;4.342;2023-02-01T06:13:10;35.00;;;5.68;;
34832;SDS011;55941;50.800;4.342;2023-02-01T06:15:37;45.10;;;6.63;;
34832;SDS011;55941;50.800;4.342;2023-02-01T06:18:09;44.78;;;6.22;;
34832;SDS011;55941;50.800;4.342;2023-02-01T06:20:37;44.28;;;5.60;;
34832;SDS011;55941;50.800;4.342;2023-02-01T06:23:04;36.55;;;5.25;;
34832;SDS011;55941;50.800;4.342;2023-02-01T06:25:30;55.63;;;7.28;;
34832;SDS011;55941;50.800;4.342;2023-02-01T06:27:55;41.00;;;6.00;;
34832;SDS011;55941;50.800;4.342;2023-02-01T06:30:26;47.42;;;6.38;;
34832;SDS011;55941;50.800;4.342;2023-02-01T06:32:52;35.10;;;5.57;;
34832;SDS011;55941;50.800;4.342;2023-02-01T06:35:19;41.30;;;6.20;;
34832;SDS011;55941;50.800;4.342;2023-02-01T06:37:45;45.92;;;5.95;;
34832;SDS011;55941;50.800;4.342;2023-02-01T06:40:11;38.20;;;5.93;;
34832;SDS011;55941;50.800;4.342;2023-02-01T06:42:37;47.22;;;5.97;;
34832;SDS011;55941;50.800;4.342;2023-02-01T06:45:03;28.75;;;5.30;;
34832;SDS011;55941;50.800;4.342;2023-02-01T06:47:31;46.22;;;6.05;;
34832;SDS011;55941;50.800;4.342;2023-02-01T06:49:57;49.03;;;6.25;;
34832;SDS011;55941;50.800;4.342;2023-02-01T06:52:23;38.45;;;6.28;;
34832;SDS011;55941;50.800;4.342;2023-02-01T06:54:50;41.55;;;6.55;;
34832;SDS011;55941;50.800;4.342;2023-02-01T06:57:16;49.88;;;5.90;;
34832;SDS011;55941;50.800;4.342;2023-02-01T06:59:42;42.20;;;6.22;;
34832;SDS011;55941;50.800;4.342;2023-02-01T07:02:10;35.70;;;5.90;;
34832;SDS011;55941;50.800;4.342;2023-02-01T07:04:37;49.53;;;6.38;;
34832;SDS011;55941;50.800;4.342;2023-02-01T07:07:03;28.88;;;5.80;;
34832;SDS011;55941;50.800;4.342;2023-02-01T07:09:29;54.40;;;7.60;;
34832;SDS011;55941;50.800;4.342;2023-02-01T07:11:55;38.28;;;7.57;;
34832;SDS011;55941;50.800;4.342;2023-02-01T07:14:20;42.65;;;7.28;;
34832;SDS011;55941;50.800;4.342;2023-02-01T07:16:46;57.58;;;7.78;;
34832;SDS011;55941;50.800;4.342;2023-02-01T07:19:12;40.78;;;6.97;;
34832;SDS011;55941;50.800;4.342;2023-02-01T07:21:38;56.95;;;7.50;;
34832;SDS011;55941;50.800;4.342;2023-02-01T07:24:04;42.60;;;6.47;;
34832;SDS011;55941;50.800;4.342;2023-02-01T07:26:30;38.17;;;6.13;;
34832;SDS011;55941;50.800;4.342;2023-02-01T07:28:56;45.75;;;6.00;;
34832;SDS011;55941;50.800;4.342;2023-02-01T07:31:22;53.65;;;7.50;;
34832;SDS011;55941;50.800;4.342;2023-02-01T07:33:50;42.17;;;6.63;;
34832;SDS011;55941;50.800;4.342;2023-02-01T07:36:20;49.03;;;6.65;;
34832;SDS011;55941;50.800;4.342;2023-02-01T07:38:47;33.90;;;5.57;;
34832;SDS011;55941;50.800;4.342;2023-02-01T07:41:13;48.13;;;7.40;;
34832;SDS011;55941;50.800;4.342;2023-02-01T07:43:40;47.60;;;6.75;;
34832;SDS011;55941;50.800;4.342;2023-02-01T07:46:06;61.63;;;7.07;;
34832;SDS011;55941;50.800;4.342;2023-02-01T07:48:36;54.95;;;7.90;;
34832;SDS011;55941;50.800;4.342;2023-02-01T07:51:07;53.78;;;6.22;;
34832;SDS011;55941;50.800;4.342;2023-02-01T07:53:35;55.25;;;7.78;;
34832;SDS011;55941;50.800;4.342;2023-02-01T07:56:01;46.10;;;7.72;;
34832;SDS011;55941;50.800;4.342;2023-02-01T07:58:27;46.78;;;6.30;;
34832;SDS011;55941;50.800;4.342;2023-02-01T08:00:54;46.05;;;7.18;;
34832;SDS011;55941;50.800;4.342;2023-02-01T08:03:39;40.65;;;6.13;;
34832;SDS011;55941;50.800;4.342;2023-02-01T08:06:06;45.38;;;6.00;;
34832;SDS011;55941;50.800;4.342;2023-02-01T08:08:32;48.28;;;6.88;;
34832;SDS011;55941;50.800;4.342;2023-02-01T08:11:02;39.70;;;5.53;;
34832;SDS011;55941;50.800;4.342;2023-02-01T08:13:29;46.78;;;6.25;;
34832;SDS011;55941;50.800;4.342;2023-02-01T08:16:00;53.38;;;7.18;;
34832;SDS011;55941;50.800;4.342;2023-02-01T08:18:29;43.85;;;7.55;;
34832;SDS011;55941;50.800;4.342;2023-02-01T08:20:55;34.63;;;5.93;;
34832;SDS011;55941;50.800;4.342;2023-02-01T08:23:21;35.05;;;6.57;;
34832;SDS011;55941;50.800;4.342;2023-02-01T08:25:48;43.75;;;6.78;;
34832;SDS011;55941;50.800;4.342;2023-02-01T08:28:14;52.72;;;7.55;;
34832;SDS011;55941;50.800;4.342;2023-02-01T08:30:41;46.78;;;7.60;;
34832;SDS011;55941;50.800;4.342;2023-02-01T08:33:07;53.55;;;6.68;;
34832;SDS011;55941;50.800;4.342;2023-02-01T08:35:37;44.85;;;6.65;;
34832;SDS011;55941;50.800;4.342;2023-02-01T08:38:04;52.80;;;7.03;;
34832;SDS011;55941;50.800;4.342;2023-02-01T08:40:30;42.20;;;6.85;;
34832;SDS011;55941;50.800;4.342;2023-02-01T08:42:56;43.55;;;6.43;;
34832;SDS011;55941;50.800;4.342;2023-02-01T08:45:26;49.10;;;8.40;;
34832;SDS011;55941;50.800;4.342;2023-02-01T08:47:55;47.63;;;6.60;;
34832;SDS011;55941;50.800;4.342;2023-02-01T08:50:22;33.83;;;5.95;;
34832;SDS011;55941;50.800;4.342;2023-02-01T08:52:48;46.15;;;6.45;;
34832;SDS011;55941;50.800;4.342;2023-02-01T08:55:14;45.30;;;6.50;;
34832;SDS011;55941;50.800;4.342;2023-02-01T08:57:41;48.17;;;6.25;;
34832;SDS011;55941;50.800;4.342;2023-02-01T09:00:08;55.00;;;7.63;;
34832;SDS011;55941;50.800;4.342;2023-02-01T09:02:40;40.22;;;6.68;;
34832;SDS011;55941;50.800;4.342;2023-02-01T09:05:08;37.67;;;6.30;;
34832;SDS011;55941;50.800;4.342;2023-02-01T09:07:33;45.65;;;6.88;;
34832;SDS011;55941;50.800;4.342;2023-02-01T09:10:00;48.30;;;6.97;;
34832;SDS011;55941;50.800;4.342;2023-02-01T09:12:27;44.20;;;6.78;;
34832;SDS011;55941;50.800;4.342;2023-02-01T09:14:55;46.65;;;7.30;;
34832;SDS011;55941;50.800;4.342;2023-02-01T09:17:22;44.92;;;6.03;;
34832;SDS011;55941;50.800;4.342;2023-02-01T09:19:48;57.20;;;7.20;;
34832;SDS011;55941;50.800;4.342;2023-02-01T09:22:14;46.17;;;6.88;;
34832;SDS011;55941;50.800;4.342;2023-02-01T09:24:41;44.35;;;6.60;;
34832;SDS011;55941;50.800;4.342;2023-02-01T09:27:07;43.10;;;6.72;;
34832;SDS011;55941;50.800;4.342;2023-02-01T09:29:33;48.67;;;6.95;;
34832;SDS011;55941;50.800;4.342;2023-02-01T09:31:58;35.65;;;6.72;;
34832;SDS011;55941;50.800;4.342;2023-02-01T09:34:25;43.70;;;6.03;;
34832;SDS011;55941;50.800;4.342;2023-02-01T09:36:51;39.63;;;6.32;;
34832;SDS011;55941;50.800;4.342;2023-02-01T09:39:16;47.30;;;7.57;;
34832;SDS011;55941;50.800;4.342;2023-02-01T09:47:28;47.65;;;6.53;;
34832;SDS011;55941;50.800;4.342;2023-02-01T09:49:56;44.22;;;6.50;;
34832;SDS011;55941;50.800;4.342;2023-02-01T09:52:52;44.72;;;7.18;;
34832;SDS011;55941;50.800;4.342;2023-02-01T10:01:01;45.47;;;6.28;;
34832;SDS011;55941;50.800;4.342;2023-02-01T10:03:29;40.97;;;6.78;;
34832;SDS011;55941;50.800;4.342;2023-02-01T10:14:32;45.13;;;5.97;;
34832;SDS011;55941;50.800;4.342;2023-02-01T10:17:25;31.15;;;5.57;;
34832;SDS011;55941;50.800;4.342;2023-02-01T10:22:45;27.73;;;5.35;;
34832;SDS011;55941;50.800;4.342;2023-02-01T10:25:26;38.47;;;5.32;;
34832;SDS011;55941;50.800;4.342;2023-02-01T10:27:56;40.42;;;5.55;;
34832;SDS011;55941;50.800;4.342;2023-02-01T10:30:25;32.42;;;5.32;;
34832;SDS011;55941;50.800;4.342;2023-02-01T10:35:28;36.40;;;5.28;;
34832;SDS011;55941;50.800;4.342;2023-02-01T10:38:01;37.85;;;5.43;;
34832;SDS011;55941;50.800;4.342;2023-02-01T10:40:30;34.95;;;5.68;;
34832;SDS011;55941;50.800;4.342;2023-02-01T10:42:58;29.77;;;5.95;;
34832;SDS011;55941;50.800;4.342;2023-02-01T10:45:30;32.15;;;4.90;;
34832;SDS011;55941;50.800;4.342;2023-02-01T10:47:58;36.70;;;5.10;;
34832;SDS011;55941;50.800;4.342;2023-02-01T10:56:04;28.20;;;3.90;;
34832;SDS011;55941;50.800;4.342;2023-02-01T10:58:34;27.65;;;4.38;;
34832;SDS011;55941;50.800;4.342;2023-02-01T11:01:07;25.67;;;4.80;;
34832;SDS011;55941;50.800;4.342;2023-02-01T11:03:44;29.98;;;4.60;;
34832;SDS011;55941;50.800;4.342;2023-02-01T11:06:30;25.35;;;4.13;;
34832;SDS011;55941;50.800;4.342;2023-02-01T11:09:09;27.58;;;4.15;;
34832;SDS011;55941;50.800;4.342;2023-02-01T11:14:17;30.55;;;4.13;;
34832;SDS011;55941;50.800;4.342;2023-02-01T11:16:53;30.20;;;4.53;;
34832;SDS011;55941;50.800;4.342;2023-02-01T11:19:22;28.67;;;4.28;;
34832;SDS011;55941;50.800;4.342;2023-02-01T11:21:51;29.25;;;4.38;;
34832;SDS011;55941;50.800;4.342;2023-02-01T11:24:23;29.27;;;4.35;;
34832;SDS011;55941;50.800;4.342;2023-02-01T11:26:55;31.15;;;3.83;;
34832;SDS011;55941;50.800;4.342;2023-02-01T11:29:22;27.55;;;4.18;;
34832;SDS011;55941;50.800;4.342;2023-02-01T11:31:55;23.83;;;3.83;;
34832;SDS011;55941;50.800;4.342;2023-02-01T11:34:24;23.92;;;3.83;;
34832;SDS011;55941;50.800;4.342;2023-02-01T11:36:55;30.75;;;4.70;;
34832;SDS011;55941;50.800;4.342;2023-02-01T11:39:26;18.42;;;4.13;;
34832;SDS011;55941;50.800;4.342;2023-02-01T11:44:31;23.98;;;4.03;;
34832;SDS011;55941;50.800;4.342;2023-02-01T11:49:48;25.17;;;3.88;;
34832;SDS011;55941;50.800;4.342;2023-02-01T11:58:22;22.92;;;3.63;;
34832;SDS011;55941;50.800;4.342;2023-02-01T12:06:12;15.73;;;3.05;;
34832;SDS011;55941;50.800;4.342;2023-02-01T12:12:03;19.45;;;3.38;;
34832;SDS011;55941;50.800;4.342;2023-02-01T12:17:35;14.70;;;3.10;;
34832;SDS011;55941;50.800;4.342;2023-02-01T12:22:52;22.33;;;3.60;;
34832;SDS011;55941;50.800;4.342;2023-02-01T12:25:37;20.73;;;3.05;;
34832;SDS011;55941;50.800;4.342;2023-02-01T12:31:36;14.88;;;2.63;;
34832;SDS011;55941;50.800;4.342;2023-02-01T12:34:09;17.02;;;2.90;;
34832;SDS011;55941;50.800;4.342;2023-02-01T12:42:46;15.07;;;2.85;;
34832;SDS011;55941;50.800;4.342;2023-02-01T12:45:26;17.92;;;2.90;;
34832;SDS011;55941;50.800;4.342;2023-02-01T12:47:59;14.27;;;2.85;;
34832;SDS011;55941;50.800;4.342;2023-02-01T12:50:39;14.70;;;3.55;;
34832;SDS011;55941;50.800;4.342;2023-02-01T12:53:16;17.05;;;2.85;;
34832;SDS011;55941;50.800;4.342;2023-02-01T12:56:04;20.80;;;4.35;;
34832;SDS011;55941;50.800;4.342;2023-02-01T12:58:41;14.75;;;2.50;;
34832;SDS011;55941;50.800;4.342;2023-02-01T13:01:31;17.63;;;3.28;;
34832;SDS011;55941;50.800;4.342;2023-02-01T13:06:54;14.82;;;2.50;;
34832;SDS011;55941;50.800;4.342;2023-02-01T13:09:37;16.33;;;2.70;;
34832;SDS011;55941;50.800;4.342;2023-02-01T13:12:14;11.88;;;2.60;;
34832;SDS011;55941;50.800;4.342;2023-02-01T13:14:50;15.05;;;2.67;;
34832;SDS011;55941;50.800;4.342;2023-02-01T13:17:26;14.18;;;2.60;;
34832;SDS011;55941;50.800;4.342;2023-02-01T13:19:56;15.35;;;2.50;;
34832;SDS011;55941;50.800;4.342;2023-02-01T13:22:30;14.77;;;2.42;;
34832;SDS011;55941;50.800;4.342;2023-02-01T13:25:11;19.17;;;2.65;;
34832;SDS011;55941;50.800;4.342;2023-02-01T13:27:41;14.38;;;2.63;;
34832;SDS011;55941;50.800;4.342;2023-02-01T13:30:23;14.38;;;2.83;;
34832;SDS011;55941;50.800;4.342;2023-02-01T13:36:00;13.18;;;2.65;;
34832;SDS011;55941;50.800;4.342;2023-02-01T13:41:39;14.07;;;3.15;;
34832;SDS011;55941;50.800;4.342;2023-02-01T13:44:17;22.08;;;2.85;;
34832;SDS011;55941;50.800;4.342;2023-02-01T13:46:49;13.57;;;2.90;;
34832;SDS011;55941;50.800;4.342;2023-02-01T13:49:21;14.40;;;2.58;;
34832;SDS011;55941;50.800;4.342;2023-02-01T13:51:54;18.05;;;3.40;;
34832;SDS011;55941;50.800;4.342;2023-02-01T13:54:32;18.55;;;3.17;;
34832;SDS011;55941;50.800;4.342;2023-02-01T13:57:02;16.10;;;2.58;;
34832;SDS011;55941;50.800;4.342;2023-02-01T14:21:13;18.35;;;2.97;;
34832;SDS011;55941;50.800;4.342;2023-02-01T14:23:47;19.45;;;3.10;;
34832;SDS011;55941;50.800;4.342;2023-02-01T14:26:24;19.55;;;3.60;;
34832;SDS011;55941;50.800;4.342;2023-02-01T14:31:52;18.50;;;3.45;;
34832;SDS011;55941;50.800;4.342;2023-02-01T14:42:42;19.30;;;3.20;;
34832;SDS011;55941;50.800;4.342;2023-02-01T15:03:46;21.30;;;2.85;;
34832;SDS011;55941;50.800;4.342;2023-02-01T15:06:30;21.83;;;3.28;;
34832;SDS011;55941;50.800;4.342;2023-02-01T15:11:58;22.50;;;3.25;;
34832;SDS011;55941;50.800;4.342;2023-02-01T15:14:28;36.78;;;4.05;;
34832;SDS011;55941;50.800;4.342;2023-02-01T15:16:57;19.77;;;2.67;;
34832;SDS011;55941;50.800;4.342;2023-02-01T15:19:26;23.65;;;3.28;;
34832;SDS011;55941;50.800;4.342;2023-02-01T15:21:55;32.05;;;4.20;;
34832;SDS011;55941;50.800;4.342;2023-02-01T15:24:27;30.23;;;3.78;;
34832;SDS011;55941;50.800;4.342;2023-02-01T15:26:55;20.15;;;3.45;;
34832;SDS011;55941;50.800;4.342;2023-02-01T15:29:30;22.52;;;3.75;;
34832;SDS011;55941;50.800;4.342;2023-02-01T15:32:00;23.77;;;3.75;;
34832;SDS011;55941;50.800;4.342;2023-02-01T15:37:13;21.92;;;4.03;;
34832;SDS011;55941;50.800;4.342;2023-02-01T15:42:34;30.63;;;4.35;;
34832;SDS011;55941;50.800;4.342;2023-02-01T15:45:21;23.05;;;4.20;;
34832;SDS011;55941;50.800;4.342;2023-02-01T15:47:50;25.77;;;4.07;;
34832;SDS011;55941;50.800;4.342;2023-02-01T15:50:18;24.23;;;3.90;;
34832;SDS011;55941;50.800;4.342;2023-02-01T15:52:46;27.80;;;4.35;;
34832;SDS011;55941;50.800;4.342;2023-02-01T15:58:05;25.70;;;4.70;;
34832;SDS011;55941;50.800;4.342;2023-02-01T16:00:35;27.33;;;4.72;;
34832;SDS011;55941;50.800;4.342;2023-02-01T16:06:09;25.15;;;3.75;;
34832;SDS011;55941;50.800;4.342;2023-02-01T16:08:37;29.73;;;4.20;;
34832;SDS011;55941;50.800;4.342;2023-02-01T16:11:20;29.63;;;4.40;;
34832;SDS011;55941;50.800;4.342;2023-02-01T16:13:57;26.67;;;4.55;;
34832;SDS011;55941;50.800;4.342;2023-02-01T16:16:24;20.70;;;3.97;;
34832;SDS011;55941;50.800;4.342;2023-02-01T16:18:52;33.45;;;4.43;;
34832;SDS011;55941;50.800;4.342;2023-02-01T16:21:20;21.58;;;3.92;;
34832;SDS011;55941;50.800;4.342;2023-02-01T16:23:49;21.95;;;3.88;;
34832;SDS011;55941;50.800;4.342;2023-02-01T16:26:16;25.73;;;4.03;;
34832;SDS011;55941;50.800;4.342;2023-02-01T16:28:42;30.80;;;4.18;;
34832;SDS011;55941;50.800;4.342;2023-02-01T16:31:11;23.77;;;4.20;;
34832;SDS011;55941;50.800;4.342;2023-02-01T16:33:44;22.63;;;3.85;;
34832;SDS011;55941;50.800;4.342;2023-02-01T16:36:17;27.00;;;4.25;;
34832;SDS011;55941;50.800;4.342;2023-02-01T16:38:45;19.85;;;4.28;;
34832;SDS011;55941;50.800;4.342;2023-02-01T16:41:16;28.33;;;4.45;;
34832;SDS011;55941;50.800;4.342;2023-02-01T16:43:44;30.13;;;4.32;;
34832;SDS011;55941;50.800;4.342;2023-02-01T16:46:15;37.05;;;4.97;;
34832;SDS011;55941;50.800;4.342;2023-02-01T16:48:46;28.58;;;4.63;;
34832;SDS011;55941;50.800;4.342;2023-02-01T16:51:17;37.20;;;4.95;;
34832;SDS011;55941;50.800;4.342;2023-02-01T16:53:44;29.00;;;4.68;;
34832;SDS011;55941;50.800;4.342;2023-02-01T16:56:15;28.98;;;4.10;;
34832;SDS011;55941;50.800;4.342;2023-02-01T16:58:44;25.15;;;5.05;;
34832;SDS011;55941;50.800;4.342;2023-02-01T17:01:12;31.38;;;5.25;;
34832;SDS011;55941;50.800;4.342;2023-02-01T17:03:40;27.38;;;4.75;;
34832;SDS011;55941;50.800;4.342;2023-02-01T17:06:09;29.35;;;4.88;;
34832;SDS011;55941;50.800;4.342;2023-02-01T17:08:40;27.95;;;4.40;;
34832;SDS011;55941;50.800;4.342;2023-02-01T17:11:09;30.88;;;5.53;;
34832;SDS011;55941;50.800;4.342;2023-02-01T17:13:38;36.03;;;5.03;;
34832;SDS011;55941;50.800;4.342;2023-02-01T17:16:28;25.58;;;4.97;;
34832;SDS011;55941;50.800;4.342;2023-02-01T17:19:06;26.52;;;4.70;;
34832;SDS011;55941;50.800;4.342;2023-02-01T17:21:50;30.33;;;4.85;;
34832;SDS011;55941;50.800;4.342;2023-02-01T17:24:20;35.88;;;4.50;;
34832;SDS011;55941;50.800;4.342;2023-02-01T17:26:47;27.13;;;5.43;;
34832;SDS011;55941;50.800;4.342;2023-02-01T17:29:16;35.15;;;4.80;;
34832;SDS011;55941;50.800;4.342;2023-02-01T17:34:16;28.80;;;5.28;;
34832;SDS011;55941;50.800;4.342;2023-02-01T17:36:43;33.53;;;4.80;;
34832;SDS011;55941;50.800;4.342;2023-02-01T17:39:13;41.85;;;8.73;;
34832;SDS011;55941;50.800;4.342;2023-02-01T17:42:01;40.17;;;6.60;;
34832;SDS011;55941;50.800;4.342;2023-02-01T17:44:29;33.70;;;5.43;;
34832;SDS011;55941;50.800;4.342;2023-02-01T17:46:57;37.03;;;5.85;;
34832;SDS011;55941;50.800;4.342;2023-02-01T17:49:24;30.58;;;5.00;;
34832;SDS011;55941;50.800;4.342;2023-02-01T17:51:54;36.58;;;5.53;;
34832;SDS011;55941;50.800;4.342;2023-02-01T17:54:22;41.28;;;6.57;;